sensor_id;sensor_type;location;lat;lon;timestamp;P1;durP1;ratioP1;P2;durP2;ratioP2
2564;SDS011;1292;48.020;7.822;2023-01-15T06:46:31;0.60;;;0.60;;
2564;SDS011;1292;48.020;7.822;2023-01-15T06:49:16;0.63;;;0.50;;
2564;SDS011;1292;48.020;7.822;2023-01-15T06:51:43;0.63;;;0.63;;
2564;SDS011;1292;48.020;7.822;2023-01-15T06:54:10;0.77;;;0.77;;
2564;SDS011;1292;48.020;7.822;2023-01-15T06:56:36;0.60;;;0.60;;
2564;SDS011;1292;48.020;7.822;2023-01-15T06:59:03;0.57;;;0.40;;
2564;SDS011;1292;48.020;7.822;2023-01-15T07:01:31;0.70;;;0.50;;
2564;SDS011;1292;48.020;7.822;2023-01-15T07:03:58;0.53;;;0.50;;
2564;SDS011;1292;48.020;7.822;2023-01-15T07:06:25;0.50;;;0.50;;
2564;SDS011;1292;48.020;7.822;2023-01-15T07:08:52;0.50;;;0.40;;
2564;SDS011;1292;48.020;7.822;2023-01-15T07:11:18;0.50;;;0.50;;
2564;SDS011;1292;48.020;7.822;2023-01-15T07:13:45;0.40;;;0.40;;
2564;SDS011;1292;48.020;7.822;2023-01-15T07:16:13;0.63;;;0.40;;
2564;SDS011;1292;48.020;7.822;2023-01-15T07:18:54;0.50;;;0.50;;
2564;SDS011;1292;48.020;7.822;2023-01-15T07:21:21;0.40;;;0.30;;
2564;SDS011;1292;48.020;7.822;2023-01-15T07:23:47;0.50;;;0.37;;
2564;SDS011;1292;48.020;7.822;2023-01-15T07:26:15;0.50;;;0.40;;
2564;SDS011;1292;48.020;7.822;2023-01-15T07:28:41;0.40;;;0.40;;
2564;SDS011;1292;48.020;7.822;2023-01-15T07:31:08;0.60;;;0.50;;
2564;SDS011;1292;48.020;7.822;2023-01-15T07:33:35;0.40;;;0.40;;
2564;SDS011;1292;48.020;7.822;2023-01-15T07:36:03;0.60;;;0.40;;
2564;SDS011;1292;48.020;7.822;2023-01-15T07:38:30;2.10;;;0.57;;
2564;SDS011;1292;48.020;7.822;2023-01-15T07:40:58;0.50;;;0.40;;
2564;SDS011;1292;48.020;7.822;2023-01-15T07:43:43;0.40;;;0.40;;
2564;SDS011;1292;48.020;7.822;2023-01-15T07:46:28;0.60;;;0.40;;
2564;SDS011;1292;48.020;7.822;2023-01-15T07:49:12;1.13;;;0.60;;
2564;SDS011;1292;48.020;7.822;2023-01-15T07:51:59;0.40;;;0.40;;
2564;SDS011;1292;48.020;7.822;2023-01-15T07:54:25;0.60;;;0.57;;
2564;SDS011;1292;48.020;7.822;2023-01-15T07:56:53;0.50;;;0.50;;
2564;SDS011;1292;48.020;7.822;2023-01-15T07:59:21;1.17;;;0.60;;
2564;SDS011;1292;48.020;7.822;2023-01-15T08:01:49;1.13;;;0.50;;
2564;SDS011;1292;48.020;7.822;2023-01-15T08:04:16;0.60;;;0.50;;
2564;SDS011;1292;48.020;7.822;2023-01-15T08:06:42;0.50;;;0.40;;
2564;SDS011;1292;48.020;7.822;2023-01-15T08:09:11;0.50;;;0.40;;
2564;SDS011;1292;48.020;7.822;2023-01-15T08:11:37;0.80;;;0.50;;
2564;SDS011;1292;48.020;7.822;2023-01-15T08:14:22;0.50;;;0.40;;
2564;SDS011;1292;48.020;7.822;2023-01-15T08:17:06;0.40;;;0.40;;
2564;SDS011;1292;48.020;7.822;2023-01-15T08:19:32;0.40;;;0.30;;
2564;SDS011;1292;48.020;7.822;2023-01-15T08:21:59;0.40;;;0.40;;
2564;SDS011;1292;48.020;7.822;2023-01-15T08:24:27;0.70;;;0.60;;
2564;SDS011;1292;48.020;7.822;2023-01-15T08:26:54;2.40;;;0.97;;
2564;SDS011;1292;48.020;7.822;2023-01-15T08:29:21;0.73;;;0.60;;
2564;SDS011;1292;48.020;7.822;2023-01-15T08:31:48;0.60;;;0.50;;
2564;SDS011;1292;48.020;7.822;2023-01-15T08:34:15;0.50;;;0.50;;
2564;SDS011;1292;48.020;7.822;2023-01-15T08:36:43;1.27;;;0.90;;
2564;SDS011;1292;48.020;7.822;2023-01-15T08:39:10;0.80;;;0.60;;
2564;SDS011;1292;48.020;7.822;2023-01-15T08:41:38;0.80;;;0.80;;
2564;SDS011;1292;48.020;7.822;2023-01-15T08:44:05;0.87;;;0.60;;
2564;SDS011;1292;48.020;7.822;2023-01-15T08:46:31;1.33;;;0.70;;
2564;SDS011;1292;48.020;7.822;2023-01-15T08:48:58;1.00;;;0.80;;
2564;SDS011;1292;48.020;7.822;2023-01-15T08:51:25;1.00;;;0.60;;
2564;SDS011;1292;48.020;7.822;2023-01-15T08:53:52;1.17;;;0.50;;
2564;SDS011;1292;48.020;7.822;2023-01-15T08:56:18;1.20;;;0.60;;
2564;SDS011;1292;48.020;7.822;2023-01-15T08:58:47;0.40;;;0.40;;
2564;SDS011;1292;48.020;7.822;2023-01-15T09:01:13;0.57;;;0.57;;
2564;SDS011;1292;48.020;7.822;2023-01-15T09:03:40;0.60;;;0.50;;
2564;SDS011;1292;48.020;7.822;2023-01-15T09:06:08;0.97;;;0.60;;
2564;SDS011;1292;48.020;7.822;2023-01-15T09:08:36;3.70;;;0.70;;
2564;SDS011;1292;48.020;7.822;2023-01-15T09:11:03;1.57;;;0.63;;
2564;SDS011;1292;48.020;7.822;2023-01-15T09:13:34;0.63;;;0.53;;
2564;SDS011;1292;48.020;7.822;2023-01-15T09:16:04;0.50;;;0.40;;
2564;SDS011;1292;48.020;7.822;2023-01-15T09:18:33;1.20;;;0.70;;
2564;SDS011;1292;48.020;7.822;2023-01-15T09:21:03;0.70;;;0.60;;
2564;SDS011;1292;48.020;7.822;2023-01-15T09:23:30;0.50;;;0.50;;
2564;SDS011;1292;48.020;7.822;2023-01-15T09:25:57;2.10;;;0.70;;
2564;SDS011;1292;48.020;7.822;2023-01-15T09:28:26;2.40;;;1.67;;
2564;SDS011;1292;48.020;7.822;2023-01-15T09:30:53;0.80;;;0.80;;
2564;SDS011;1292;48.020;7.822;2023-01-15T09:33:21;1.80;;;1.00;;
2564;SDS011;1292;48.020;7.822;2023-01-15T09:35:48;1.27;;;1.17;;
2564;SDS011;1292;48.020;7.822;2023-01-15T09:38:16;3.27;;;2.43;;
2564;SDS011;1292;48.020;7.822;2023-01-15T09:40:45;1.17;;;1.07;;
2564;SDS011;1292;48.020;7.822;2023-01-15T09:43:18;5.53;;;2.70;;
2564;SDS011;1292;48.020;7.822;2023-01-15T09:45:53;1.93;;;1.47;;
2564;SDS011;1292;48.020;7.822;2023-01-15T09:48:28;2.83;;;2.10;;
2564;SDS011;1292;48.020;7.822;2023-01-15T09:51:02;2.33;;;1.50;;
2564;SDS011;1292;48.020;7.822;2023-01-15T09:53:44;1.97;;;1.30;;
2564;SDS011;1292;48.020;7.822;2023-01-15T09:56:29;8.10;;;1.77;;
2564;SDS011;1292;48.020;7.822;2023-01-15T09:58:58;1.60;;;1.50;;
2564;SDS011;1292;48.020;7.822;2023-01-15T10:01:30;2.30;;;1.87;;
2564;SDS011;1292;48.020;7.822;2023-01-15T10:04:02;4.53;;;2.63;;
2564;SDS011;1292;48.020;7.822;2023-01-15T10:06:36;3.20;;;2.20;;
2564;SDS011;1292;48.020;7.822;2023-01-15T10:09:10;0.90;;;0.90;;
2564;SDS011;1292;48.020;7.822;2023-01-15T10:11:41;1.10;;;0.97;;
2564;SDS011;1292;48.020;7.822;2023-01-15T10:14:36;1.10;;;0.80;;
2564;SDS011;1292;48.020;7.822;2023-01-15T10:17:18;1.03;;;0.80;;
2564;SDS011;1292;48.020;7.822;2023-01-15T10:19:51;1.33;;;1.00;;
2564;SDS011;1292;48.020;7.822;2023-01-15T10:22:33;2.00;;;1.50;;
2564;SDS011;1292;48.020;7.822;2023-01-15T10:25:13;1.30;;;1.10;;
2564;SDS011;1292;48.020;7.822;2023-01-15T10:27:42;3.40;;;1.10;;
2564;SDS011;1292;48.020;7.822;2023-01-15T10:30:14;1.43;;;1.27;;
2564;SDS011;1292;48.020;7.822;2023-01-15T10:32:42;1.60;;;1.37;;
2564;SDS011;1292;48.020;7.822;2023-01-15T10:35:22;1.30;;;0.77;;
2564;SDS011;1292;48.020;7.822;2023-01-15T10:37:55;0.90;;;0.90;;
2564;SDS011;1292;48.020;7.822;2023-01-15T10:40:30;1.70;;;1.17;;
2564;SDS011;1292;48.020;7.822;2023-01-15T10:43:10;1.97;;;1.10;;
2564;SDS011;1292;48.020;7.822;2023-01-15T10:45:45;1.60;;;1.30;;
2564;SDS011;1292;48.020;7.822;2023-01-15T10:48:17;0.60;;;0.57;;
2564;SDS011;1292;48.020;7.822;2023-01-15T10:50:52;1.47;;;1.23;;
2564;SDS011;1292;48.020;7.822;2023-01-15T10:53:23;1.93;;;1.30;;
2564;SDS011;1292;48.020;7.822;2023-01-15T10:55:57;1.20;;;1.10;;
2564;SDS011;1292;48.020;7.822;2023-01-15T10:58:32;2.47;;;1.10;;
2564;SDS011;1292;48.020;7.822;2023-01-15T11:01:03;10.43;;;6.87;;
2564;SDS011;1292;48.020;7.822;2023-01-15T11:03:35;3.13;;;2.20;;
2564;SDS011;1292;48.020;7.822;2023-01-15T11:06:05;2.00;;;1.90;;
2564;SDS011;1292;48.020;7.822;2023-01-15T11:08:36;6.93;;;3.30;;
2564;SDS011;1292;48.020;7.822;2023-01-15T11:11:13;3.73;;;2.70;;
2564;SDS011;1292;48.020;7.822;2023-01-15T11:13:51;5.87;;;3.90;;
2564;SDS011;1292;48.020;7.822;2023-01-15T11:16:36;3.10;;;2.73;;
2564;SDS011;1292;48.020;7.822;2023-01-15T11:19:26;1.17;;;1.07;;
2564;SDS011;1292;48.020;7.822;2023-01-15T11:22:07;1.77;;;1.67;;
2564;SDS011;1292;48.020;7.822;2023-01-15T11:24:36;6.87;;;3.20;;
2564;SDS011;1292;48.020;7.822;2023-01-15T11:27:12;2.03;;;1.87;;
2564;SDS011;1292;48.020;7.822;2023-01-15T11:29:42;1.60;;;1.03;;
2564;SDS011;1292;48.020;7.822;2023-01-15T11:32:17;8.93;;;7.50;;
2564;SDS011;1292;48.020;7.822;2023-01-15T11:34:55;2.40;;;2.10;;
2564;SDS011;1292;48.020;7.822;2023-01-15T11:37:25;2.53;;;2.10;;
2564;SDS011;1292;48.020;7.822;2023-01-15T11:39:53;1.10;;;1.10;;
2564;SDS011;1292;48.020;7.822;2023-01-15T11:42:21;2.70;;;1.47;;
2564;SDS011;1292;48.020;7.822;2023-01-15T11:45:13;2.20;;;2.07;;
2564;SDS011;1292;48.020;7.822;2023-01-15T11:47:59;1.43;;;1.33;;
2564;SDS011;1292;48.020;7.822;2023-01-15T11:50:51;1.10;;;1.10;;
2564;SDS011;1292;48.020;7.822;2023-01-15T11:53:22;2.33;;;1.43;;
2564;SDS011;1292;48.020;7.822;2023-01-15T11:55:52;2.10;;;1.00;;
2564;SDS011;1292;48.020;7.822;2023-01-15T11:58:25;1.30;;;1.20;;
2564;SDS011;1292;48.020;7.822;2023-01-15T12:00:53;1.33;;;1.20;;
2564;SDS011;1292;48.020;7.822;2023-01-15T12:03:22;3.00;;;1.73;;
2564;SDS011;1292;48.020;7.822;2023-01-15T12:05:55;2.00;;;1.80;;
2564;SDS011;1292;48.020;7.822;2023-01-15T12:11:28;2.33;;;1.60;;
2564;SDS011;1292;48.020;7.822;2023-01-15T12:14:15;1.80;;;1.70;;
2564;SDS011;1292;48.020;7.822;2023-01-15T12:16:57;1.27;;;1.17;;
2564;SDS011;1292;48.020;7.822;2023-01-15T12:19:32;2.77;;;1.30;;
2564;SDS011;1292;48.020;7.822;2023-01-15T12:22:12;2.50;;;1.83;;
2564;SDS011;1292;48.020;7.822;2023-01-15T12:24:53;5.93;;;1.73;;
2564;SDS011;1292;48.020;7.822;2023-01-15T12:27:50;4.00;;;1.77;;
2564;SDS011;1292;48.020;7.822;2023-01-15T12:30:23;3.63;;;1.87;;
2564;SDS011;1292;48.020;7.822;2023-01-15T12:32:57;1.57;;;1.30;;
2564;SDS011;1292;48.020;7.822;2023-01-15T12:35:37;1.83;;;1.60;;
2564;SDS011;1292;48.020;7.822;2023-01-15T12:38:10;1.80;;;1.70;;
2564;SDS011;1292;48.020;7.822;2023-01-15T12:40:43;1.47;;;1.23;;
2564;SDS011;1292;48.020;7.822;2023-01-15T12:43:15;2.63;;;1.67;;
2564;SDS011;1292;48.020;7.822;2023-01-15T12:46:15;1.70;;;1.60;;
2564;SDS011;1292;48.020;7.822;2023-01-15T12:48:45;8.03;;;1.57;;
2564;SDS011;1292;48.020;7.822;2023-01-15T12:51:19;3.93;;;1.20;;
2564;SDS011;1292;48.020;7.822;2023-01-15T12:53:54;1.67;;;1.30;;
2564;SDS011;1292;48.020;7.822;2023-01-15T12:56:29;1.40;;;1.27;;
2564;SDS011;1292;48.020;7.822;2023-01-15T12:59:03;2.67;;;2.00;;
2564;SDS011;1292;48.020;7.822;2023-01-15T13:01:37;6.20;;;2.00;;
2564;SDS011;1292;48.020;7.822;2023-01-15T13:04:14;5.47;;;2.13;;
2564;SDS011;1292;48.020;7.822;2023-01-15T13:06:45;4.93;;;2.00;;
2564;SDS011;1292;48.020;7.822;2023-01-15T13:09:18;2.50;;;1.43;;
2564;SDS011;1292;48.020;7.822;2023-01-15T13:12:00;2.67;;;1.40;;
2564;SDS011;1292;48.020;7.822;2023-01-15T13:14:27;3.87;;;1.87;;
2564;SDS011;1292;48.020;7.822;2023-01-15T13:16:55;2.67;;;1.33;;
2564;SDS011;1292;48.020;7.822;2023-01-15T13:19:30;4.73;;;2.60;;
2564;SDS011;1292;48.020;7.822;2023-01-15T13:22:02;2.33;;;1.90;;
2564;SDS011;1292;48.020;7.822;2023-01-15T13:24:47;2.83;;;1.67;;
2564;SDS011;1292;48.020;7.822;2023-01-15T13:27:46;3.10;;;1.80;;
2564;SDS011;1292;48.020;7.822;2023-01-15T13:30:28;2.13;;;1.60;;
2564;SDS011;1292;48.020;7.822;2023-01-15T13:33:05;4.80;;;2.10;;
2564;SDS011;1292;48.020;7.822;2023-01-15T13:35:44;1.67;;;1.53;;
2564;SDS011;1292;48.020;7.822;2023-01-15T13:38:14;2.20;;;1.40;;
2564;SDS011;1292;48.020;7.822;2023-01-15T13:40:45;1.47;;;1.33;;
2564;SDS011;1292;48.020;7.822;2023-01-15T13:43:29;1.33;;;1.17;;
2564;SDS011;1292;48.020;7.822;2023-01-15T13:46:00;1.37;;;1.27;;
2564;SDS011;1292;48.020;7.822;2023-01-15T13:48:31;2.90;;;1.23;;
2564;SDS011;1292;48.020;7.822;2023-01-15T13:51:03;1.90;;;1.10;;
2564;SDS011;1292;48.020;7.822;2023-01-15T13:53:32;3.97;;;1.17;;
2564;SDS011;1292;48.020;7.822;2023-01-15T13:56:02;1.17;;;1.03;;
2564;SDS011;1292;48.020;7.822;2023-01-15T13:58:33;1.53;;;1.00;;
2564;SDS011;1292;48.020;7.822;2023-01-15T14:01:04;1.27;;;1.00;;
2564;SDS011;1292;48.020;7.822;2023-01-15T14:03:34;1.97;;;1.27;;
2564;SDS011;1292;48.020;7.822;2023-01-15T14:06:02;2.37;;;1.60;;
2564;SDS011;1292;48.020;7.822;2023-01-15T14:08:37;2.87;;;1.80;;
2564;SDS011;1292;48.020;7.822;2023-01-15T14:14:14;1.93;;;0.90;;
2564;SDS011;1292;48.020;7.822;2023-01-15T14:16:58;2.17;;;1.00;;
2564;SDS011;1292;48.020;7.822;2023-01-15T14:22:35;1.60;;;0.77;;
2564;SDS011;1292;48.020;7.822;2023-01-15T14:25:16;1.07;;;0.97;;
2564;SDS011;1292;48.020;7.822;2023-01-15T14:27:58;2.07;;;1.20;;
2564;SDS011;1292;48.020;7.822;2023-01-15T14:30:39;1.67;;;1.40;;
2564;SDS011;1292;48.020;7.822;2023-01-15T14:33:25;1.10;;;1.00;;
2564;SDS011;1292;48.020;7.822;2023-01-15T14:36:06;0.70;;;0.67;;
2564;SDS011;1292;48.020;7.822;2023-01-15T14:38:36;0.93;;;0.73;;
2564;SDS011;1292;48.020;7.822;2023-01-15T14:41:10;0.87;;;0.80;;
2564;SDS011;1292;48.020;7.822;2023-01-15T14:43:37;2.10;;;1.10;;
2564;SDS011;1292;48.020;7.822;2023-01-15T14:46:14;1.20;;;1.10;;
2564;SDS011;1292;48.020;7.822;2023-01-15T14:48:50;4.43;;;1.20;;
2564;SDS011;1292;48.020;7.822;2023-01-15T14:51:18;3.90;;;0.90;;
2564;SDS011;1292;48.020;7.822;2023-01-15T14:53:49;1.80;;;0.97;;
2564;SDS011;1292;48.020;7.822;2023-01-15T14:56:18;6.50;;;1.10;;
2564;SDS011;1292;48.020;7.822;2023-01-15T14:58:49;3.13;;;0.87;;
2564;SDS011;1292;48.020;7.822;2023-01-15T15:01:26;5.43;;;1.43;;
2564;SDS011;1292;48.020;7.822;2023-01-15T15:03:59;3.33;;;1.27;;
2564;SDS011;1292;48.020;7.822;2023-01-15T15:06:30;2.27;;;1.37;;
2564;SDS011;1292;48.020;7.822;2023-01-15T15:09:02;2.50;;;1.37;;
2564;SDS011;1292;48.020;7.822;2023-01-15T15:11:33;3.10;;;1.40;;
2564;SDS011;1292;48.020;7.822;2023-01-15T15:14:21;1.40;;;1.10;;
2564;SDS011;1292;48.020;7.822;2023-01-15T15:16:52;2.10;;;1.90;;
2564;SDS011;1292;48.020;7.822;2023-01-15T15:19:24;2.00;;;1.57;;
2564;SDS011;1292;48.020;7.822;2023-01-15T15:21:56;1.73;;;1.37;;
2564;SDS011;1292;48.020;7.822;2023-01-15T15:24:29;4.40;;;2.97;;
2564;SDS011;1292;48.020;7.822;2023-01-15T15:27:07;4.53;;;2.00;;
2564;SDS011;1292;48.020;7.822;2023-01-15T15:29:39;4.37;;;1.30;;
2564;SDS011;1292;48.020;7.822;2023-01-15T15:32:08;2.80;;;1.73;;
2564;SDS011;1292;48.020;7.822;2023-01-15T15:34:39;2.67;;;1.90;;
2564;SDS011;1292;48.020;7.822;2023-01-15T15:37:12;3.53;;;1.50;;
2564;SDS011;1292;48.020;7.822;2023-01-15T15:39:44;5.87;;;1.50;;
2564;SDS011;1292;48.020;7.822;2023-01-15T15:42:16;1.67;;;1.50;;
2564;SDS011;1292;48.020;7.822;2023-01-15T15:45:06;2.67;;;1.43;;
2564;SDS011;1292;48.020;7.822;2023-01-15T15:48:09;2.27;;;1.20;;
2564;SDS011;1292;48.020;7.822;2023-01-15T15:50:56;2.33;;;1.47;;
2564;SDS011;1292;48.020;7.822;2023-01-15T15:53:23;6.43;;;2.20;;
2564;SDS011;1292;48.020;7.822;2023-01-15T15:55:50;2.70;;;2.10;;
2564;SDS011;1292;48.020;7.822;2023-01-15T15:58:19;2.50;;;2.27;;
2564;SDS011;1292;48.020;7.822;2023-01-15T16:00:51;2.50;;;1.50;;
2564;SDS011;1292;48.020;7.822;2023-01-15T16:03:21;3.33;;;1.80;;
2564;SDS011;1292;48.020;7.822;2023-01-15T16:05:57;2.67;;;2.30;;
2564;SDS011;1292;48.020;7.822;2023-01-15T16:08:25;3.13;;;2.00;;
2564;SDS011;1292;48.020;7.822;2023-01-15T16:10:53;1.30;;;1.20;;
2564;SDS011;1292;48.020;7.822;2023-01-15T16:13:23;1.43;;;0.87;;
2564;SDS011;1292;48.020;7.822;2023-01-15T16:15:53;0.80;;;0.80;;
2564;SDS011;1292;48.020;7.822;2023-01-15T16:18:24;4.97;;;1.37;;
2564;SDS011;1292;48.020;7.822;2023-01-15T16:20:53;3.30;;;1.67;;
2564;SDS011;1292;48.020;7.822;2023-01-15T16:23:22;2.67;;;1.20;;
2564;SDS011;1292;48.020;7.822;2023-01-15T16:25:55;8.90;;;2.13;;
2564;SDS011;1292;48.020;7.822;2023-01-15T16:28:25;3.13;;;1.80;;
2564;SDS011;1292;48.020;7.822;2023-01-15T16:30:54;3.40;;;2.77;;
2564;SDS011;1292;48.020;7.822;2023-01-15T16:33:21;2.83;;;2.30;;
2564;SDS011;1292;48.020;7.822;2023-01-15T16:35:53;3.10;;;1.80;;
2564;SDS011;1292;48.020;7.822;2023-01-15T16:38:22;1.40;;;1.23;;
2564;SDS011;1292;48.020;7.822;2023-01-15T16:40:49;2.07;;;1.40;;
2564;SDS011;1292;48.020;7.822;2023-01-15T16:43:16;1.50;;;1.40;;
2564;SDS011;1292;48.020;7.822;2023-01-15T16:45:56;4.20;;;1.30;;
2564;SDS011;1292;48.020;7.822;2023-01-15T16:48:28;2.03;;;1.40;;
2564;SDS011;1292;48.020;7.822;2023-01-15T16:51:21;1.73;;;1.30;;
2564;SDS011;1292;48.020;7.822;2023-01-15T16:53:54;1.53;;;1.33;;
2564;SDS011;1292;48.020;7.822;2023-01-15T16:56:25;3.60;;;2.10;;
2564;SDS011;1292;48.020;7.822;2023-01-15T16:59:14;1.97;;;1.70;;
2564;SDS011;1292;48.020;7.822;2023-01-15T17:01:42;5.33;;;1.60;;
2564;SDS011;1292;48.020;7.822;2023-01-15T17:04:17;7.60;;;2.60;;
2564;SDS011;1292;48.020;7.822;2023-01-15T17:06:56;2.83;;;1.77;;
2564;SDS011;1292;48.020;7.822;2023-01-15T17:09:25;10.30;;;5.03;;
2564;SDS011;1292;48.020;7.822;2023-01-15T17:11:53;3.33;;;1.60;;
2564;SDS011;1292;48.020;7.822;2023-01-15T17:14:22;2.20;;;1.33;;
2564;SDS011;1292;48.020;7.822;2023-01-15T17:17:13;3.60;;;1.53;;
2564;SDS011;1292;48.020;7.822;2023-01-15T17:19:42;2.80;;;2.47;;
2564;SDS011;1292;48.020;7.822;2023-01-15T17:22:09;5.50;;;1.80;;
2564;SDS011;1292;48.020;7.822;2023-01-15T17:24:45;3.40;;;1.30;;
2564;SDS011;1292;48.020;7.822;2023-01-15T17:27:13;1.87;;;1.40;;
2564;SDS011;1292;48.020;7.822;2023-01-15T17:29:39;2.20;;;1.53;;
2564;SDS011;1292;48.020;7.822;2023-01-15T17:32:09;1.83;;;0.90;;
2564;SDS011;1292;48.020;7.822;2023-01-15T17:34:39;2.53;;;1.20;;
2564;SDS011;1292;48.020;7.822;2023-01-15T17:37:07;2.03;;;1.10;;
2564;SDS011;1292;48.020;7.822;2023-01-15T17:39:34;1.10;;;1.00;;
2564;SDS011;1292;48.020;7.822;2023-01-15T17:42:01;1.10;;;1.00;;
2564;SDS011;1292;48.020;7.822;2023-01-15T17:47:04;6.47;;;5.40;;
2564;SDS011;1292;48.020;7.822;2023-01-15T17:49:31;5.30;;;3.67;;
2564;SDS011;1292;48.020;7.822;2023-01-15T17:51:58;7.17;;;3.57;;
2564;SDS011;1292;48.020;7.822;2023-01-15T17:54:27;5.33;;;4.37;;
2564;SDS011;1292;48.020;7.822;2023-01-15T17:57:11;5.60;;;2.23;;
2564;SDS011;1292;48.020;7.822;2023-01-15T17:59:55;2.60;;;2.00;;
2564;SDS011;1292;48.020;7.822;2023-01-15T18:02:39;4.30;;;2.63;;
2564;SDS011;1292;48.020;7.822;2023-01-15T18:05:25;2.70;;;2.50;;
2564;SDS011;1292;48.020;7.822;2023-01-15T18:07:57;6.13;;;2.63;;
2564;SDS011;1292;48.020;7.822;2023-01-15T18:10:29;5.13;;;2.57;;
2564;SDS011;1292;48.020;7.822;2023-01-15T18:12:56;10.47;;;4.60;;
2564;SDS011;1292;48.020;7.822;2023-01-15T18:15:23;6.20;;;3.23;;
2564;SDS011;1292;48.020;7.822;2023-01-15T18:17:49;6.00;;;3.10;;
2564;SDS011;1292;48.020;7.822;2023-01-15T18:20:16;6.80;;;2.70;;
2564;SDS011;1292;48.020;7.822;2023-01-15T18:22:43;11.00;;;4.70;;
2564;SDS011;1292;48.020;7.822;2023-01-15T18:25:10;8.10;;;3.77;;
2564;SDS011;1292;48.020;7.822;2023-01-15T18:27:38;8.80;;;3.60;;
2564;SDS011;1292;48.020;7.822;2023-01-15T18:30:08;11.83;;;3.40;;
2564;SDS011;1292;48.020;7.822;2023-01-15T18:32:35;16.90;;;7.97;;
2564;SDS011;1292;48.020;7.822;2023-01-15T18:35:02;18.93;;;6.50;;
2564;SDS011;1292;48.020;7.822;2023-01-15T18:37:30;12.63;;;4.60;;
2564;SDS011;1292;48.020;7.822;2023-01-15T18:39:58;10.07;;;4.90;;
2564;SDS011;1292;48.020;7.822;2023-01-15T18:42:24;15.03;;;4.67;;
2564;SDS011;1292;48.020;7.822;2023-01-15T18:45:10;10.07;;;5.30;;
2564;SDS011;1292;48.020;7.822;2023-01-15T18:47:55;10.40;;;5.10;;
2564;SDS011;1292;48.020;7.822;2023-01-15T18:50:21;9.10;;;5.30;;
2564;SDS011;1292;48.020;7.822;2023-01-15T18:52:48;8.27;;;3.87;;
2564;SDS011;1292;48.020;7.822;2023-01-15T18:55:15;11.20;;;4.43;;
2564;SDS011;1292;48.020;7.822;2023-01-15T18:57:42;6.80;;;4.10;;
2564;SDS011;1292;48.020;7.822;2023-01-15T19:00:11;11.30;;;5.73;;
2564;SDS011;1292;48.020;7.822;2023-01-15T19:02:39;10.17;;;4.27;;
2564;SDS011;1292;48.020;7.822;2023-01-15T19:05:06;6.43;;;4.27;;
2564;SDS011;1292;48.020;7.822;2023-01-15T19:07:35;8.73;;;5.43;;
2564;SDS011;1292;48.020;7.822;2023-01-15T19:10:02;6.00;;;3.80;;
2564;SDS011;1292;48.020;7.822;2023-01-15T19:12:30;5.40;;;3.03;;
2564;SDS011;1292;48.020;7.822;2023-01-15T19:14:57;9.07;;;5.43;;
2564;SDS011;1292;48.020;7.822;2023-01-15T19:17:42;8.20;;;3.77;;
2564;SDS011;1292;48.020;7.822;2023-01-15T19:20:27;6.97;;;3.97;;
2564;SDS011;1292;48.020;7.822;2023-01-15T19:22:54;4.10;;;2.33;;
2564;SDS011;1292;48.020;7.822;2023-01-15T19:25:23;3.00;;;2.13;;
2564;SDS011;1292;48.020;7.822;2023-01-15T19:27:50;2.00;;;1.80;;
2564;SDS011;1292;48.020;7.822;2023-01-15T19:30:19;3.47;;;1.40;;
2564;SDS011;1292;48.020;7.822;2023-01-15T19:32:47;1.70;;;1.50;;
2564;SDS011;1292;48.020;7.822;2023-01-15T19:35:14;3.90;;;2.03;;
2564;SDS011;1292;48.020;7.822;2023-01-15T19:37:42;3.80;;;2.10;;
2564;SDS011;1292;48.020;7.822;2023-01-15T19:40:10;6.17;;;3.30;;
2564;SDS011;1292;48.020;7.822;2023-01-15T19:42:40;2.40;;;1.27;;
2564;SDS011;1292;48.020;7.822;2023-01-15T19:45:24;3.70;;;1.77;;
2564;SDS011;1292;48.020;7.822;2023-01-15T19:48:12;4.80;;;1.67;;
2564;SDS011;1292;48.020;7.822;2023-01-15T19:50:58;2.13;;;1.93;;
2564;SDS011;1292;48.020;7.822;2023-01-15T19:53:25;2.23;;;1.80;;
2564;SDS011;1292;48.020;7.822;2023-01-15T19:55:53;2.80;;;2.50;;
2564;SDS011;1292;48.020;7.822;2023-01-15T19:58:19;5.83;;;2.10;;
2564;SDS011;1292;48.020;7.822;2023-01-15T20:00:46;4.60;;;2.43;;
2564;SDS011;1292;48.020;7.822;2023-01-15T20:03:15;1.90;;;1.47;;
2564;SDS011;1292;48.020;7.822;2023-01-15T20:05:42;5.47;;;2.33;;
2564;SDS011;1292;48.020;7.822;2023-01-15T20:08:09;2.73;;;1.70;;
2564;SDS011;1292;48.020;7.822;2023-01-15T20:10:39;4.10;;;1.67;;
2564;SDS011;1292;48.020;7.822;2023-01-15T20:13:09;1.30;;;1.10;;
2564;SDS011;1292;48.020;7.822;2023-01-15T20:15:58;2.90;;;1.80;;
2564;SDS011;1292;48.020;7.822;2023-01-15T20:18:32;2.73;;;2.20;;
2564;SDS011;1292;48.020;7.822;2023-01-15T20:20:59;3.83;;;1.63;;
2564;SDS011;1292;48.020;7.822;2023-01-15T20:23:26;3.03;;;1.40;;
2564;SDS011;1292;48.020;7.822;2023-01-15T20:25:53;3.40;;;1.20;;
2564;SDS011;1292;48.020;7.822;2023-01-15T20:28:25;1.40;;;1.30;;
2564;SDS011;1292;48.020;7.822;2023-01-15T20:30:51;1.90;;;1.33;;
2564;SDS011;1292;48.020;7.822;2023-01-15T20:33:20;4.17;;;1.10;;
2564;SDS011;1292;48.020;7.822;2023-01-15T20:35:48;4.00;;;1.30;;
2564;SDS011;1292;48.020;7.822;2023-01-15T20:38:16;2.90;;;1.60;;
2564;SDS011;1292;48.020;7.822;2023-01-15T20:40:44;1.27;;;1.10;;
2564;SDS011;1292;48.020;7.822;2023-01-15T20:43:11;0.70;;;0.70;;
2564;SDS011;1292;48.020;7.822;2023-01-15T20:46:04;6.97;;;1.60;;
2564;SDS011;1292;48.020;7.822;2023-01-15T20:48:32;2.13;;;0.90;;
2564;SDS011;1292;48.020;7.822;2023-01-15T20:51:18;4.23;;;1.03;;
2564;SDS011;1292;48.020;7.822;2023-01-15T20:53:45;2.50;;;1.33;;
2564;SDS011;1292;48.020;7.822;2023-01-15T20:56:13;2.80;;;1.17;;
2564;SDS011;1292;48.020;7.822;2023-01-15T20:58:42;1.83;;;1.10;;
2564;SDS011;1292;48.020;7.822;2023-01-15T21:01:10;0.83;;;0.67;;
2564;SDS011;1292;48.020;7.822;2023-01-15T21:03:37;1.23;;;0.90;;
2564;SDS011;1292;48.020;7.822;2023-01-15T21:06:04;0.80;;;0.80;;
2564;SDS011;1292;48.020;7.822;2023-01-15T21:08:34;2.03;;;0.70;;
2564;SDS011;1292;48.020;7.822;2023-01-15T21:11:01;1.27;;;0.87;;
2564;SDS011;1292;48.020;7.822;2023-01-15T21:13:28;1.40;;;0.80;;
2564;SDS011;1292;48.020;7.822;2023-01-15T21:15:55;4.40;;;1.17;;
2564;SDS011;1292;48.020;7.822;2023-01-15T21:18:24;3.57;;;1.20;;
2564;SDS011;1292;48.020;7.822;2023-01-15T21:20:51;1.47;;;0.80;;
2564;SDS011;1292;48.020;7.822;2023-01-15T21:23:18;3.97;;;1.23;;
2564;SDS011;1292;48.020;7.822;2023-01-15T21:25:47;3.23;;;0.83;;
2564;SDS011;1292;48.020;7.822;2023-01-15T21:28:14;2.00;;;0.97;;
2564;SDS011;1292;48.020;7.822;2023-01-15T21:30:41;3.37;;;1.20;;
2564;SDS011;1292;48.020;7.822;2023-01-15T21:33:09;1.30;;;0.80;;
2564;SDS011;1292;48.020;7.822;2023-01-15T21:35:37;1.03;;;0.70;;
2564;SDS011;1292;48.020;7.822;2023-01-15T21:38:05;1.00;;;0.70;;
2564;SDS011;1292;48.020;7.822;2023-01-15T21:40:32;1.87;;;1.10;;
2564;SDS011;1292;48.020;7.822;2023-01-15T21:43:00;3.80;;;0.80;;
2564;SDS011;1292;48.020;7.822;2023-01-15T21:45:44;1.50;;;1.03;;
2564;SDS011;1292;48.020;7.822;2023-01-15T21:48:11;4.10;;;1.50;;
2564;SDS011;1292;48.020;7.822;2023-01-15T21:50:37;0.70;;;0.50;;
2564;SDS011;1292;48.020;7.822;2023-01-15T21:53:04;2.37;;;1.03;;
2564;SDS011;1292;48.020;7.822;2023-01-15T21:55:31;4.40;;;2.57;;
2564;SDS011;1292;48.020;7.822;2023-01-15T21:57:59;1.90;;;1.73;;
